createdAt,value
2023-09-28T00:00:36.046Z,52.99
2023-09-28T00:03:05.356Z,52.78
2023-09-28T00:05:32.702Z,53.08
2023-09-28T00:08:01.866Z,52.80
2023-09-28T00:10:29.042Z,52.84
2023-09-28T00:12:57.112Z,52.83
2023-09-28T00:15:25.658Z,52.77
2023-09-28T00:17:54.528Z,52.64
2023-09-28T00:20:23.869Z,52.73
2023-09-28T00:22:52.829Z,52.79
2023-09-28T00:25:21.100Z,52.75
2023-09-28T00:27:51.259Z,52.62
2023-09-28T00:30:20.664Z,52.73
2023-09-28T00:32:50.384Z,52.48
2023-09-28T00:35:17.529Z,52.36
2023-09-28T00:37:45.644Z,52.74
2023-09-28T00:40:19.952Z,52.65
2023-09-28T00:42:48.476Z,52.52
2023-09-28T00:45:16.638Z,52.34
2023-09-28T00:47:44.111Z,52.44
2023-09-28T00:50:16.047Z,52.17
2023-09-28T00:52:43.817Z,52.33
2023-09-28T00:55:12.514Z,52.69
2023-09-28T00:57:39.930Z,52.00
2023-09-28T01:00:19.276Z,52.22
2023-09-28T01:02:47.865Z,52.56
2023-09-28T01:05:17.337Z,52.49
2023-09-28T01:07:44.462Z,52.53
2023-09-28T01:10:15.089Z,52.39
2023-09-28T01:12:42.386Z,52.42
2023-09-28T01:15:12.441Z,52.45
2023-09-28T01:17:40.120Z,52.25
2023-09-28T01:20:19.156Z,52.49
2023-09-28T01:22:50.380Z,52.45
2023-09-28T01:25:20.389Z,52.19
2023-09-28T01:27:47.928Z,52.27
2023-09-28T01:30:17.405Z,52.11
2023-09-28T01:32:44.582Z,52.17
2023-09-28T01:35:13.478Z,52.22
2023-09-28T01:37:46.187Z,52.28
2023-09-28T01:40:16.204Z,52.23
2023-09-28T01:42:44.800Z,52.12
2023-09-28T01:45:12.917Z,52.11
2023-09-28T01:47:41.041Z,52.12
2023-09-28T01:50:08.595Z,52.07
2023-09-28T01:52:36.657Z,51.98
2023-09-28T01:55:03.984Z,52.05
2023-09-28T01:57:33.745Z,52.20
2023-09-28T02:00:01.250Z,51.71
2023-09-28T02:02:30.446Z,52.17
2023-09-28T02:04:58.484Z,51.92
2023-09-28T02:07:26.532Z,51.78
2023-09-28T02:09:53.976Z,52.08
2023-09-28T02:12:22.038Z,51.97
2023-09-28T02:14:50.912Z,51.87
2023-09-28T02:17:19.009Z,52.04
2023-09-28T02:19:46.062Z,51.96
2023-09-28T02:22:14.143Z,51.59
2023-09-28T02:24:41.161Z,51.80
2023-09-28T02:27:09.593Z,51.76
2023-09-28T02:29:36.703Z,51.77
2023-09-28T02:32:06.198Z,51.76
2023-09-28T02:34:34.491Z,51.82
2023-09-28T02:37:03.986Z,51.92
2023-09-28T02:39:31.005Z,51.36
2023-09-28T02:41:59.033Z,51.63
2023-09-28T02:44:26.098Z,51.67
2023-09-28T02:46:54.176Z,51.56
2023-09-28T02:49:22.599Z,51.94
2023-09-28T02:51:51.542Z,51.68
2023-09-28T02:54:21.320Z,51.76
2023-09-28T02:56:51.209Z,51.91
2023-09-28T02:59:23.215Z,51.53
2023-09-28T03:01:50.426Z,51.66
2023-09-28T03:04:18.634Z,51.60
2023-09-28T03:06:50.186Z,51.33
2023-09-28T03:09:18.450Z,51.78
2023-09-28T03:11:46.866Z,51.55
2023-09-28T03:14:14.654Z,51.58
2023-09-28T03:16:43.789Z,51.55
2023-09-28T03:19:11.590Z,51.68
2023-09-28T03:21:40.777Z,51.56
2023-09-28T03:24:09.826Z,51.55
2023-09-28T03:26:38.071Z,51.52
2023-09-28T03:29:05.187Z,51.32
2023-09-28T03:31:35.398Z,51.37
2023-09-28T03:34:02.721Z,51.63
2023-09-28T03:36:33.449Z,51.16
2023-09-28T03:39:01.540Z,51.30
2023-09-28T03:41:30.970Z,51.20
2023-09-28T03:43:59.041Z,51.32
2023-09-28T03:46:27.118Z,51.47
2023-09-28T03:48:55.372Z,51.37
2023-09-28T03:51:23.410Z,51.43
2023-09-28T03:53:51.541Z,51.60
2023-09-28T03:56:19.740Z,51.26
2023-09-28T03:58:49.280Z,51.53
2023-09-28T04:01:17.461Z,51.33
2023-09-28T04:03:45.606Z,51.40
2023-09-28T04:06:14.265Z,51.48
2023-09-28T04:08:42.308Z,51.31
2023-09-28T04:11:10.358Z,51.31
2023-09-28T04:13:38.542Z,51.22
2023-09-28T04:16:07.951Z,51.34
2023-09-28T04:18:36.046Z,50.93
2023-09-28T04:21:04.095Z,51.16
2023-09-28T04:23:32.201Z,51.22
2023-09-28T04:26:00.270Z,51.03
2023-09-28T04:28:28.826Z,50.79
2023-09-28T04:30:57.178Z,51.19
2023-09-28T04:33:26.597Z,50.88
2023-09-28T04:35:55.090Z,50.78
2023-09-28T04:38:23.456Z,50.80
2023-09-28T04:40:52.019Z,50.87
2023-09-28T04:43:19.113Z,50.88
2023-09-28T04:45:47.733Z,50.87
2023-09-28T04:48:15.809Z,50.75
2023-09-28T04:50:45.519Z,50.84
2023-09-28T04:53:13.954Z,50.74
2023-09-28T04:55:41.995Z,51.02
2023-09-28T04:58:10.278Z,50.84
2023-09-28T05:00:38.389Z,50.77
2023-09-28T05:03:06.791Z,51.03
2023-09-28T05:05:35.120Z,50.72
2023-09-28T05:08:04.927Z,50.80
2023-09-28T05:10:33.526Z,50.65
2023-09-28T05:13:01.617Z,50.69
2023-09-28T05:15:30.239Z,50.50
2023-09-28T05:17:58.429Z,50.45
2023-09-28T05:20:26.757Z,50.57
2023-09-28T05:22:55.759Z,50.63
2023-09-28T05:25:25.259Z,50.77
2023-09-28T05:27:53.615Z,50.75
2023-09-28T05:30:22.000Z,50.78
2023-09-28T05:32:50.167Z,50.53
2023-09-28T05:35:18.734Z,50.28
2023-09-28T05:37:46.896Z,50.69
2023-09-28T05:40:15.064Z,50.47
2023-09-28T05:42:44.539Z,50.23
2023-09-28T05:45:12.681Z,50.47
2023-09-28T05:47:40.853Z,50.38
2023-09-28T05:50:09.748Z,50.48
2023-09-28T05:52:37.895Z,50.39
2023-09-28T05:55:06.522Z,50.26
2023-09-28T05:57:34.628Z,50.48
2023-09-28T06:00:08.478Z,50.28
2023-09-28T06:02:36.836Z,50.58
2023-09-28T06:05:05.780Z,50.50
2023-09-28T06:07:34.381Z,50.38
2023-09-28T06:10:03.462Z,49.63
2023-09-28T06:12:31.636Z,48.08
2023-09-28T06:14:59.950Z,47.69
2023-09-28T06:17:29.498Z,48.06
2023-09-28T06:19:58.622Z,48.18
2023-09-28T06:22:27.070Z,48.27
2023-09-28T06:24:56.206Z,48.64
2023-09-28T06:27:26.395Z,48.71
2023-09-28T06:29:55.070Z,48.90
2023-09-28T06:32:23.751Z,49.02
2023-09-28T06:34:53.542Z,48.79
2023-09-28T06:37:21.653Z,47.87
2023-09-28T06:39:49.784Z,47.31
2023-09-28T06:42:34.452Z,47.32
2023-09-28T06:45:05.506Z,47.61
2023-09-28T06:47:46.493Z,47.84
2023-09-28T06:50:22.355Z,48.16
2023-09-28T06:52:49.534Z,48.14
2023-09-28T06:55:17.802Z,48.13
2023-09-28T06:57:45.840Z,48.37
2023-09-28T07:00:18.351Z,48.31
2023-09-28T07:02:48.493Z,48.23
2023-09-28T07:05:17.789Z,48.36
2023-09-28T07:07:47.463Z,48.33
2023-09-28T07:10:15.701Z,48.55
2023-09-28T07:12:43.787Z,48.44
2023-09-28T07:15:12.655Z,48.43
2023-09-28T07:17:40.923Z,48.57
2023-09-28T07:20:10.542Z,48.65
2023-09-28T07:22:38.807Z,48.64
2023-09-28T07:25:10.423Z,48.76
2023-09-28T07:27:39.191Z,48.75
2023-09-28T07:30:08.154Z,48.61
2023-09-28T07:32:36.416Z,48.77
2023-09-28T07:35:05.200Z,48.84
2023-09-28T07:37:33.549Z,48.16
2023-09-28T07:40:02.732Z,47.52
2023-09-28T07:42:32.500Z,47.79
2023-09-28T07:45:01.786Z,47.51
2023-09-28T07:47:30.188Z,47.59
2023-09-28T07:49:59.948Z,47.76
2023-09-28T07:52:28.150Z,48.04
2023-09-28T07:54:56.745Z,48.07
2023-09-28T07:57:24.809Z,47.94
2023-09-28T07:59:55.812Z,48.09
2023-09-28T08:02:28.948Z,48.20
2023-09-28T08:04:57.255Z,48.27
2023-09-28T08:07:25.532Z,48.06
2023-09-28T08:09:53.773Z,48.26
2023-09-28T08:12:21.856Z,48.25
2023-09-28T08:14:49.920Z,48.31
2023-09-28T08:17:19.508Z,48.47
2023-09-28T08:19:47.686Z,48.41
2023-09-28T08:22:15.789Z,48.47
2023-09-28T08:24:44.334Z,48.45
2023-09-28T08:27:12.610Z,48.48
2023-09-28T08:29:40.665Z,48.74
2023-09-28T08:32:09.307Z,48.62
2023-09-28T08:34:39.840Z,48.62
2023-09-28T08:37:09.156Z,48.58
2023-09-28T08:39:38.131Z,48.47
2023-09-28T08:42:06.909Z,48.43
2023-09-28T08:44:35.715Z,48.50
2023-09-28T08:47:04.418Z,48.70
2023-09-28T08:49:33.384Z,48.75
2023-09-28T08:52:02.860Z,48.70
2023-09-28T08:54:30.999Z,48.65
2023-09-28T08:56:59.375Z,48.72
2023-09-28T08:59:30.301Z,48.73
2023-09-28T09:02:01.648Z,48.89
2023-09-28T09:04:30.588Z,48.80
2023-09-28T09:06:58.769Z,48.85
2023-09-28T09:09:28.234Z,48.80
2023-09-28T09:11:56.348Z,48.98
2023-09-28T09:14:29.426Z,48.85
2023-09-28T09:16:57.902Z,48.72
2023-09-28T09:19:31.043Z,48.52
2023-09-28T09:21:59.193Z,48.33
2023-09-28T09:24:28.700Z,48.45
2023-09-28T09:26:57.535Z,48.27
2023-09-28T09:29:25.717Z,48.46
2023-09-28T09:31:54.142Z,48.66
2023-09-28T09:34:22.760Z,48.64
2023-09-28T09:36:57.341Z,48.67
2023-09-28T09:39:26.197Z,48.74
2023-09-28T09:41:56.680Z,48.77
2023-09-28T09:44:25.833Z,48.86
2023-09-28T09:46:55.818Z,48.67
2023-09-28T09:49:25.766Z,48.41
2023-09-28T09:51:54.116Z,48.81
2023-09-28T09:54:22.537Z,48.95
2023-09-28T09:56:52.037Z,48.84
2023-09-28T09:59:22.684Z,49.12
2023-09-28T10:01:51.849Z,48.89
2023-09-28T10:04:20.394Z,49.05
2023-09-28T10:06:49.607Z,49.07
2023-09-28T10:09:18.408Z,49.07
2023-09-28T10:11:48.186Z,49.16
2023-09-28T10:14:17.525Z,49.21
2023-09-28T10:16:48.460Z,49.30
2023-09-28T10:19:18.862Z,49.25
2023-09-28T10:21:47.134Z,49.38
2023-09-28T10:24:16.276Z,49.45
2023-09-28T10:26:45.016Z,49.33
2023-09-28T10:29:14.292Z,49.62
2023-09-28T10:34:20.853Z,49.39
2023-09-28T10:37:20.757Z,49.16
2023-09-28T10:39:57.449Z,49.33
2023-09-28T10:42:25.640Z,49.27
2023-09-28T10:44:55.669Z,49.31
2023-09-28T10:47:24.007Z,49.55
2023-09-28T10:50:00.435Z,49.43
2023-09-28T10:52:28.751Z,49.46
2023-09-28T10:54:57.150Z,49.34
2023-09-28T10:57:31.004Z,49.50
2023-09-28T11:00:02.482Z,49.68
2023-09-28T11:02:33.314Z,49.46
2023-09-28T11:05:03.194Z,49.61
2023-09-28T11:07:31.428Z,49.60
2023-09-28T11:10:00.031Z,49.36
2023-09-28T11:12:30.103Z,49.64
2023-09-28T11:14:59.808Z,49.73
2023-09-28T11:17:32.136Z,49.62
2023-09-28T11:20:00.856Z,49.62
2023-09-28T11:22:31.136Z,49.96
2023-09-28T11:24:59.221Z,49.75
2023-09-28T11:27:27.358Z,50.21
2023-09-28T11:29:57.340Z,49.95
2023-09-28T11:32:25.585Z,50.08
2023-09-28T11:34:54.896Z,50.37
2023-09-28T11:37:24.168Z,50.25
2023-09-28T11:39:53.629Z,50.27
2023-09-28T11:42:23.350Z,50.23
2023-09-28T11:44:51.728Z,50.40
2023-09-28T11:47:22.009Z,50.54
2023-09-28T11:49:50.453Z,50.53
2023-09-28T11:52:20.127Z,50.53
2023-09-28T11:54:48.299Z,50.66
2023-09-28T11:57:19.853Z,50.66
2023-09-28T11:59:48.668Z,50.81
2023-09-28T12:02:19.128Z,50.72
2023-09-28T12:04:48.075Z,50.78
2023-09-28T12:07:17.559Z,50.78
2023-09-28T12:09:58.574Z,50.86
2023-09-28T12:12:33.830Z,50.92
2023-09-28T12:15:01.893Z,50.81
2023-09-28T12:17:30.240Z,50.83
2023-09-28T12:19:58.496Z,50.93
2023-09-28T12:22:26.861Z,50.99
2023-09-28T12:24:57.180Z,51.17
2023-09-28T12:27:25.682Z,51.01
2023-09-28T12:29:55.085Z,51.18
2023-09-28T12:32:23.437Z,51.35
2023-09-28T12:34:51.894Z,51.29
2023-09-28T12:37:19.968Z,51.27
2023-09-28T12:39:49.488Z,51.22
2023-09-28T12:42:17.627Z,51.47
2023-09-28T12:44:45.717Z,51.29
2023-09-28T12:47:15.583Z,51.31
2023-09-28T12:49:43.701Z,51.63
2023-09-28T12:52:11.818Z,51.44
2023-09-28T12:54:39.883Z,51.51
2023-09-28T12:57:08.752Z,51.45
2023-09-28T12:59:36.966Z,51.55
2023-09-28T13:02:07.125Z,51.30
2023-09-28T13:04:36.891Z,51.49
2023-09-28T13:07:05.835Z,51.62
2023-09-28T13:09:34.242Z,51.73
2023-09-28T13:12:02.436Z,51.53
2023-09-28T13:14:30.841Z,51.58
2023-09-28T13:16:59.830Z,51.70
2023-09-28T13:19:27.935Z,51.65
2023-09-28T13:21:57.964Z,51.91
2023-09-28T13:27:01.731Z,51.99
2023-09-28T13:29:30.849Z,51.83
2023-09-28T13:31:59.057Z,52.06
2023-09-28T13:34:27.726Z,51.72
2023-09-28T13:36:57.239Z,51.92
2023-09-28T13:39:29.202Z,52.00
2023-09-28T13:41:58.631Z,51.96
2023-09-28T13:44:27.802Z,51.94
2023-09-28T13:46:56.745Z,51.90
2023-09-28T13:49:25.391Z,52.11
2023-09-28T13:51:54.015Z,51.96
2023-09-28T13:54:24.112Z,52.11
2023-09-28T13:56:59.202Z,52.10
2023-09-28T13:59:27.473Z,52.11
2023-09-28T14:01:56.046Z,52.16
2023-09-28T14:04:24.382Z,52.14
2023-09-28T14:06:56.039Z,52.18
2023-09-28T14:09:28.717Z,52.07
2023-09-28T14:11:57.353Z,52.51
2023-09-28T14:14:25.738Z,52.11
2023-09-28T14:17:00.403Z,52.14
2023-09-28T14:19:34.820Z,52.13
2023-09-28T14:22:04.297Z,52.20
2023-09-28T14:24:33.888Z,52.07
2023-09-28T14:27:01.964Z,52.00
2023-09-28T14:29:30.650Z,51.67
2023-09-28T14:31:58.730Z,52.03
2023-09-28T14:34:26.818Z,51.79
2023-09-28T14:36:54.912Z,51.61
2023-09-28T14:39:23.025Z,51.71
2023-09-28T14:41:52.493Z,51.64
2023-09-28T14:44:20.733Z,51.79
2023-09-28T14:46:49.520Z,51.78
2023-09-28T14:49:17.623Z,51.62
2023-09-28T14:51:45.810Z,51.47
2023-09-28T14:54:14.019Z,51.71
2023-09-28T14:56:42.113Z,51.52
2023-09-28T14:59:11.727Z,51.47
2023-09-28T15:01:39.852Z,51.40
2023-09-28T15:04:09.024Z,51.49
2023-09-28T15:06:37.483Z,51.34
2023-09-28T15:09:05.999Z,51.51
2023-09-28T15:11:34.201Z,51.34
2023-09-28T15:14:02.762Z,51.40
2023-09-28T15:16:31.648Z,51.35
2023-09-28T15:19:00.608Z,51.12
2023-09-28T15:21:28.705Z,51.20
2023-09-28T15:23:57.918Z,51.26
2023-09-28T15:26:26.037Z,51.46
2023-09-28T15:28:55.942Z,51.10
2023-09-28T15:31:24.445Z,51.25
2023-09-28T15:33:54.119Z,51.31
2023-09-28T15:36:22.831Z,51.10
2023-09-28T15:38:51.117Z,51.38
2023-09-28T15:41:35.160Z,51.19
2023-09-28T15:44:04.735Z,51.18
2023-09-28T15:46:33.198Z,51.29
2023-09-28T15:49:03.559Z,51.26
2023-09-28T15:51:31.768Z,51.32
2023-09-28T15:53:59.843Z,51.28
2023-09-28T15:56:28.136Z,51.12
2023-09-28T15:58:56.713Z,51.24
2023-09-28T16:01:25.023Z,51.31
2023-09-28T16:03:55.052Z,51.34
2023-09-28T16:06:25.168Z,51.36
2023-09-28T16:08:53.460Z,51.42
2023-09-28T16:11:21.846Z,51.45
2023-09-28T16:13:50.025Z,51.30
2023-09-28T16:16:18.201Z,51.33
2023-09-28T16:18:46.339Z,51.26
2023-09-28T16:21:14.410Z,51.17
2023-09-28T16:23:43.994Z,51.56
2023-09-28T16:26:13.889Z,51.41
2023-09-28T16:28:43.465Z,51.38
2023-09-28T16:31:11.621Z,51.55
2023-09-28T16:33:39.817Z,51.74
2023-09-28T16:36:08.144Z,51.64
2023-09-28T16:38:36.482Z,51.67
2023-09-28T16:41:05.989Z,51.87
2023-09-28T16:43:34.114Z,51.75
2023-09-28T16:46:02.206Z,51.67
2023-09-28T16:48:30.387Z,52.00
2023-09-28T16:50:59.051Z,51.88
2023-09-28T16:53:27.191Z,52.04
2023-09-28T16:55:55.271Z,52.28
2023-09-28T16:58:24.899Z,52.15
2023-09-28T17:00:52.994Z,52.19
2023-09-28T17:03:21.166Z,52.15
2023-09-28T17:05:49.439Z,52.31
2023-09-28T17:08:17.726Z,52.01
2023-09-28T17:10:48.360Z,52.13
2023-09-28T17:13:16.594Z,52.17
2023-09-28T17:15:49.605Z,52.27
2023-09-28T17:18:21.584Z,52.43
2023-09-28T17:20:50.659Z,52.30
2023-09-28T17:23:19.022Z,52.30
2023-09-28T17:25:47.317Z,52.39
2023-09-28T17:28:15.412Z,52.41
2023-09-28T17:30:43.546Z,52.47
2023-09-28T17:33:13.055Z,52.71
2023-09-28T17:35:41.243Z,52.67
2023-09-28T17:38:09.464Z,52.37
2023-09-28T17:40:37.603Z,52.91
2023-09-28T17:43:06.319Z,52.66
2023-09-28T17:45:36.380Z,52.69
2023-09-28T17:48:05.776Z,52.87
2023-09-28T17:50:35.406Z,52.91
2023-09-28T17:53:04.966Z,52.75
2023-09-28T17:55:33.072Z,53.09
2023-09-28T17:58:01.308Z,53.08
2023-09-28T18:00:30.608Z,53.03
2023-09-28T18:02:58.827Z,53.14
2023-09-28T18:05:27.064Z,52.79
2023-09-28T18:07:57.530Z,53.19
2023-09-28T18:10:25.684Z,53.14
2023-09-28T18:12:53.733Z,53.28
2023-09-28T18:15:21.869Z,53.26
2023-09-28T18:17:50.031Z,53.15
2023-09-28T18:20:18.240Z,53.33
2023-09-28T18:22:47.740Z,53.30
2023-09-28T18:25:17.438Z,53.25
2023-09-28T18:27:45.605Z,53.50
2023-09-28T18:30:14.098Z,53.59
2023-09-28T18:32:42.420Z,53.54
2023-09-28T18:35:11.439Z,53.37
2023-09-28T18:37:39.598Z,53.69
2023-09-28T18:40:09.277Z,53.67
2023-09-28T18:42:40.066Z,53.38
2023-09-28T18:45:09.544Z,53.74
2023-09-28T18:47:37.723Z,53.70
2023-09-28T18:50:07.536Z,53.71
2023-09-28T18:52:36.189Z,53.94
2023-09-28T18:55:04.535Z,53.85
2023-09-28T18:57:32.735Z,53.91
2023-09-28T19:00:03.780Z,53.83
2023-09-28T19:02:32.047Z,53.76
2023-09-28T19:05:00.341Z,53.97
2023-09-28T19:07:31.975Z,53.47
2023-09-28T19:10:00.193Z,53.91
2023-09-28T19:12:28.280Z,53.76
2023-09-28T19:14:56.392Z,53.76
2023-09-28T19:17:25.850Z,53.91
2023-09-28T19:19:54.285Z,53.97
2023-09-28T19:22:23.753Z,53.98
2023-09-28T19:24:52.420Z,53.99
2023-09-28T19:27:35.659Z,53.81
2023-09-28T19:30:07.974Z,53.99
2023-09-28T19:32:37.535Z,54.01
2023-09-28T19:35:06.376Z,53.97
2023-09-28T19:37:34.512Z,53.93
2023-09-28T19:40:02.907Z,53.99
2023-09-28T19:42:31.005Z,53.91
2023-09-28T19:44:59.126Z,54.06
2023-09-28T19:47:28.372Z,54.36
2023-09-28T19:49:58.027Z,53.93
2023-09-28T19:52:26.234Z,54.06
2023-09-28T19:54:54.364Z,54.12
2023-09-28T19:57:22.704Z,54.26
2023-09-28T19:59:50.858Z,53.80
2023-09-28T20:02:19.015Z,54.26
2023-09-28T20:04:47.178Z,54.30
2023-09-28T20:07:18.113Z,54.17
2023-09-28T20:09:46.256Z,54.08
2023-09-28T20:12:17.318Z,54.56
2023-09-28T20:14:46.942Z,54.04
2023-09-28T20:17:15.083Z,53.93
2023-09-28T20:19:44.572Z,54.07
2023-09-28T20:22:12.698Z,54.38
2023-09-28T20:24:42.306Z,54.06
2023-09-28T20:27:10.455Z,54.42
2023-09-28T20:29:38.570Z,54.24
2023-09-28T20:32:07.569Z,54.22
2023-09-28T20:34:35.768Z,54.35
2023-09-28T20:37:04.328Z,54.24
2023-09-28T20:39:32.400Z,54.25
2023-09-28T20:42:01.896Z,54.19
2023-09-28T20:44:29.992Z,54.51
2023-09-28T20:46:58.099Z,54.29
2023-09-28T20:49:26.202Z,54.25
2023-09-28T20:51:54.314Z,54.37
2023-09-28T20:54:23.032Z,54.40
2023-09-28T20:56:51.561Z,54.35
2023-09-28T20:59:21.142Z,54.23
2023-09-28T21:01:49.342Z,54.13
2023-09-28T21:04:17.787Z,54.33
2023-09-28T21:06:45.930Z,54.51
2023-09-28T21:09:14.290Z,54.48
2023-09-28T21:11:42.722Z,54.67
2023-09-28T21:14:10.856Z,54.61
2023-09-28T21:16:40.330Z,54.41
2023-09-28T21:19:08.425Z,54.44
2023-09-28T21:21:36.648Z,54.48
2023-09-28T21:24:06.423Z,54.55
2023-09-28T21:26:34.601Z,54.55
2023-09-28T21:29:02.954Z,54.84
2023-09-28T21:31:31.118Z,54.35
2023-09-28T21:34:00.566Z,54.62
2023-09-28T21:36:28.678Z,54.65
2023-09-28T21:38:57.531Z,54.60
2023-09-28T21:41:25.891Z,54.57
2023-09-28T21:43:54.886Z,54.76
2023-09-28T21:46:23.449Z,54.52
2023-09-28T21:48:51.572Z,54.90
2023-09-28T21:51:21.426Z,54.75
2023-09-28T21:53:50.162Z,54.50
2023-09-28T21:56:18.802Z,54.57
2023-09-28T21:58:47.122Z,54.35
2023-09-28T22:01:16.317Z,54.48
2023-09-28T22:03:45.027Z,54.45
2023-09-28T22:06:13.213Z,54.27
2023-09-28T22:08:42.912Z,54.21
2023-09-28T22:11:11.450Z,54.35
2023-09-28T22:13:39.623Z,54.01
2023-09-28T22:16:07.786Z,53.90
2023-09-28T22:18:36.158Z,54.17
2023-09-28T22:21:04.605Z,54.12
2023-09-28T22:23:32.729Z,54.19
2023-09-28T22:26:02.227Z,54.20
2023-09-28T22:28:30.413Z,54.13
2023-09-28T22:30:58.470Z,54.40
2023-09-28T22:33:26.649Z,53.95
2023-09-28T22:35:54.852Z,53.84
2023-09-28T22:38:23.061Z,53.88
2023-09-28T22:40:51.132Z,53.79
2023-09-28T22:43:20.586Z,53.79
2023-09-28T22:45:48.704Z,53.96
2023-09-28T22:48:16.880Z,53.64
2023-09-28T22:50:45.528Z,53.80
2023-09-28T22:53:13.662Z,53.70
2023-09-28T22:55:41.762Z,53.49
2023-09-28T22:58:09.833Z,53.45
2023-09-28T23:00:39.452Z,53.29
2023-09-28T23:03:07.848Z,53.22
2023-09-28T23:05:37.968Z,53.46
2023-09-28T23:08:07.660Z,53.45
2023-09-28T23:10:36.210Z,53.36
2023-09-28T23:13:04.373Z,53.33
2023-09-28T23:15:32.941Z,53.27
2023-09-28T23:18:03.789Z,53.38
2023-09-28T23:20:32.678Z,53.48
2023-09-28T23:23:01.202Z,53.27
2023-09-28T23:25:29.367Z,53.22
2023-09-28T23:27:57.443Z,53.03
2023-09-28T23:30:25.565Z,53.22
2023-09-28T23:32:54.603Z,53.06
2023-09-28T23:35:25.508Z,53.38
2023-09-28T23:37:55.914Z,53.23
2023-09-28T23:40:24.395Z,53.05
2023-09-28T23:42:53.531Z,53.16
2023-09-28T23:45:23.587Z,53.12
2023-09-28T23:47:51.901Z,52.96
2023-09-28T23:50:22.213Z,53.09
2023-09-28T23:52:51.765Z,53.01
2023-09-28T23:55:20.348Z,53.06
2023-09-28T23:57:48.628Z,52.71
